createdAt,value
2023-05-17T00:01:00.596Z,17.40
2023-05-17T00:03:27.368Z,17.30
2023-05-17T00:05:54.329Z,17.40
2023-05-17T00:08:21.478Z,17.40
2023-05-17T00:10:48.299Z,17.40
2023-05-17T00:13:15.062Z,17.30
2023-05-17T00:15:41.935Z,17.30
2023-05-17T00:18:08.813Z,17.30
2023-05-17T00:20:36.644Z,17.30
2023-05-17T00:23:04.163Z,17.30
2023-05-17T00:25:31.227Z,17.30
2023-05-17T00:27:58.242Z,17.20
2023-05-17T00:30:25.110Z,17.20
2023-05-17T00:32:52.051Z,17.20
2023-05-17T00:35:19.037Z,17.20
2023-05-17T00:37:48.040Z,17.10
2023-05-17T00:40:16.376Z,17.20
2023-05-17T00:42:43.259Z,17.10
2023-05-17T00:45:10.890Z,17.10
2023-05-17T00:47:37.832Z,17.10
2023-05-17T00:50:05.959Z,17.10
2023-05-17T00:52:33.106Z,17.10
2023-05-17T00:54:59.977Z,17.10
2023-05-17T00:57:26.964Z,17.10
2023-05-17T00:59:55.751Z,17.10
2023-05-17T01:02:23.057Z,17.00
2023-05-17T01:04:50.073Z,17.10
2023-05-17T01:07:18.072Z,17.10
2023-05-17T01:09:45.625Z,17.10
2023-05-17T01:12:15.235Z,17.10
2023-05-17T01:14:53.852Z,17.00
2023-05-17T01:17:35.770Z,17.00
2023-05-17T01:20:23.849Z,17.00
2023-05-17T01:23:31.580Z,17.00
2023-05-17T01:26:19.065Z,16.90
2023-05-17T01:28:49.027Z,16.80
2023-05-17T01:31:17.226Z,16.90
2023-05-17T01:33:44.369Z,16.90
2023-05-17T01:36:11.199Z,16.90
2023-05-17T01:38:38.093Z,16.90
2023-05-17T01:41:23.517Z,16.80
2023-05-17T01:43:58.932Z,16.80
2023-05-17T01:46:42.534Z,16.80
2023-05-17T01:49:16.596Z,16.80
2023-05-17T01:51:49.367Z,16.90
2023-05-17T01:54:22.042Z,16.80
2023-05-17T01:56:57.471Z,16.80
2023-05-17T01:59:25.616Z,16.80
2023-05-17T02:02:03.998Z,16.80
2023-05-17T02:04:31.084Z,16.80
2023-05-17T02:06:57.909Z,16.80
2023-05-17T02:09:24.767Z,16.70
2023-05-17T02:11:51.563Z,16.70
2023-05-17T02:14:18.708Z,16.80
2023-05-17T02:16:45.599Z,16.70
2023-05-17T02:19:13.245Z,16.70
2023-05-17T02:21:40.205Z,16.70
2023-05-17T02:24:07.215Z,16.70
2023-05-17T02:26:34.006Z,16.70
2023-05-17T02:29:01.169Z,16.70
2023-05-17T02:31:28.197Z,16.70
2023-05-17T02:33:55.319Z,16.80
2023-05-17T02:36:22.236Z,16.70
2023-05-17T02:38:49.004Z,16.70
2023-05-17T02:41:15.751Z,16.70
2023-05-17T02:43:42.612Z,16.80
2023-05-17T02:46:09.471Z,16.70
2023-05-17T02:48:36.327Z,16.70
2023-05-17T02:51:03.213Z,16.80
2023-05-17T02:53:30.038Z,16.80
2023-05-17T02:55:58.155Z,16.80
2023-05-17T02:58:25.802Z,16.70
2023-05-17T03:00:52.697Z,16.80
2023-05-17T03:03:19.680Z,16.90
2023-05-17T03:05:46.997Z,16.90
2023-05-17T03:08:13.823Z,16.90
2023-05-17T03:10:40.678Z,16.80
2023-05-17T03:13:07.488Z,16.80
2023-05-17T03:15:34.261Z,16.90
2023-05-17T03:18:01.196Z,16.80
2023-05-17T03:20:28.022Z,16.80
2023-05-17T03:22:54.749Z,16.80
2023-05-17T03:25:21.521Z,16.70
2023-05-17T03:27:48.319Z,16.60
2023-05-17T03:30:15.392Z,16.80
2023-05-17T03:32:42.291Z,16.80
2023-05-17T03:35:09.756Z,16.70
2023-05-17T03:37:36.608Z,16.60
2023-05-17T03:40:03.744Z,16.60
2023-05-17T03:42:30.599Z,16.60
2023-05-17T03:44:57.963Z,16.60
2023-05-17T03:47:24.924Z,16.50
2023-05-17T03:49:51.811Z,16.50
2023-05-17T03:52:18.567Z,16.50
2023-05-17T03:54:47.503Z,16.50
2023-05-17T03:57:15.108Z,16.30
2023-05-17T03:59:41.967Z,16.30
2023-05-17T04:02:08.792Z,16.40
2023-05-17T04:04:38.690Z,16.30
2023-05-17T04:07:05.797Z,16.40
2023-05-17T04:09:35.065Z,16.40
2023-05-17T04:12:02.143Z,16.40
2023-05-17T04:14:28.909Z,16.30
2023-05-17T04:16:55.745Z,16.30
2023-05-17T04:19:22.874Z,16.20
2023-05-17T04:21:52.148Z,16.10
2023-05-17T04:24:19.099Z,16.10
2023-05-17T04:26:46.016Z,16.10
2023-05-17T04:29:13.213Z,16.00
2023-05-17T04:31:40.068Z,16.10
2023-05-17T04:34:06.970Z,16.00
2023-05-17T04:36:34.286Z,16.00
2023-05-17T04:39:01.702Z,16.00
2023-05-17T04:41:28.525Z,16.10
2023-05-17T04:43:55.811Z,16.00
2023-05-17T04:46:22.857Z,16.10
2023-05-17T04:48:49.802Z,16.10
2023-05-17T04:51:17.056Z,16.00
2023-05-17T04:53:43.894Z,16.10
2023-05-17T04:56:10.817Z,16.10
2023-05-17T04:58:37.610Z,16.10
2023-05-17T05:01:06.047Z,16.20
2023-05-17T05:03:32.962Z,16.10
2023-05-17T05:05:59.856Z,16.10
2023-05-17T05:08:26.613Z,16.20
2023-05-17T05:10:53.371Z,16.10
2023-05-17T05:13:20.459Z,16.10
2023-05-17T05:15:47.267Z,16.20
2023-05-17T05:18:14.484Z,16.20
2023-05-17T05:20:41.321Z,16.30
2023-05-17T05:23:08.101Z,16.30
2023-05-17T05:25:35.491Z,16.30
2023-05-17T05:28:02.355Z,16.30
2023-05-17T05:30:29.213Z,16.30
2023-05-17T05:32:56.156Z,16.30
2023-05-17T05:35:29.522Z,16.30
2023-05-17T05:37:58.253Z,16.30
2023-05-17T05:40:25.101Z,16.40
2023-05-17T05:42:52.540Z,16.40
2023-05-17T05:45:19.691Z,16.50
2023-05-17T05:47:46.626Z,16.40
2023-05-17T05:50:13.749Z,16.50
2023-05-17T05:52:40.672Z,16.50
2023-05-17T05:55:07.988Z,16.40
2023-05-17T05:57:35.811Z,16.50
2023-05-17T06:00:03.045Z,16.60
2023-05-17T06:02:30.246Z,16.50
2023-05-17T06:04:57.189Z,16.50
2023-05-17T06:07:24.015Z,16.60
2023-05-17T06:09:50.826Z,16.60
2023-05-17T06:12:17.949Z,16.60
2023-05-17T06:14:44.715Z,16.60
2023-05-17T06:17:11.532Z,16.60
2023-05-17T06:19:38.414Z,16.70
2023-05-17T06:22:05.319Z,16.70
2023-05-17T06:24:33.236Z,16.70
2023-05-17T06:27:00.237Z,16.80
2023-05-17T06:29:27.091Z,16.70
2023-05-17T06:31:57.364Z,16.80
2023-05-17T06:34:24.214Z,16.80
2023-05-17T06:36:51.112Z,16.80
2023-05-17T06:39:18.158Z,16.80
2023-05-17T06:41:44.969Z,16.90
2023-05-17T06:44:11.826Z,16.90
2023-05-17T06:46:38.668Z,16.90
2023-05-17T06:49:05.785Z,17.00
2023-05-17T06:51:32.735Z,17.10
2023-05-17T06:53:59.517Z,17.10
2023-05-17T06:56:26.713Z,17.20
2023-05-17T06:58:53.546Z,17.30
2023-05-17T07:01:21.712Z,17.40
2023-05-17T07:03:48.585Z,17.50
2023-05-17T07:06:15.556Z,17.60
2023-05-17T07:08:42.380Z,17.60
2023-05-17T07:11:09.283Z,17.70
2023-05-17T07:13:39.170Z,17.90
2023-05-17T07:16:09.009Z,18.00
2023-05-17T07:18:36.112Z,18.00
2023-05-17T07:21:03.064Z,18.10
2023-05-17T07:23:29.816Z,18.30
2023-05-17T07:25:56.731Z,18.40
2023-05-17T07:28:23.580Z,18.50
2023-05-17T07:30:50.996Z,18.60
2023-05-17T07:33:17.757Z,18.70
2023-05-17T07:35:44.589Z,18.80
2023-05-17T07:38:11.481Z,19.00
2023-05-17T07:40:38.290Z,19.00
2023-05-17T07:43:08.366Z,19.10
2023-05-17T07:45:35.157Z,19.20
2023-05-17T07:48:01.997Z,19.30
2023-05-17T07:50:29.282Z,19.30
2023-05-17T07:52:56.559Z,19.40
2023-05-17T07:55:25.719Z,19.30
2023-05-17T07:57:52.636Z,19.30
2023-05-17T08:00:20.110Z,19.30
2023-05-17T08:02:47.316Z,19.30
2023-05-17T08:05:14.553Z,19.30
2023-05-17T08:07:41.449Z,19.20
2023-05-17T08:10:08.615Z,19.30
2023-05-17T08:12:35.445Z,19.20
2023-05-17T08:15:02.469Z,19.40
2023-05-17T08:17:29.383Z,19.30
2023-05-17T08:19:56.236Z,19.40
2023-05-17T08:22:23.030Z,19.20
2023-05-17T08:24:50.237Z,19.30
2023-05-17T08:27:17.119Z,19.30
2023-05-17T08:29:44.057Z,19.30
2023-05-17T08:32:10.885Z,19.50
2023-05-17T08:34:37.751Z,19.60
2023-05-17T08:37:04.803Z,19.70
2023-05-17T08:39:31.723Z,19.70
2023-05-17T08:41:59.728Z,19.80
2023-05-17T08:44:30.991Z,19.80
2023-05-17T08:46:59.201Z,19.80
2023-05-17T08:49:28.727Z,19.80
2023-05-17T08:51:59.392Z,19.90
2023-05-17T08:54:26.669Z,20.10
2023-05-17T08:56:58.559Z,20.20
2023-05-17T08:59:27.455Z,20.40
2023-05-17T09:01:54.968Z,20.40
2023-05-17T09:04:22.324Z,20.40
2023-05-17T09:06:50.784Z,20.50
2023-05-17T09:09:19.004Z,20.50
2023-05-17T09:11:46.086Z,20.30
2023-05-17T09:14:15.234Z,20.30
2023-05-17T09:16:44.010Z,20.20
2023-05-17T09:19:16.241Z,20.40
2023-05-17T09:21:47.467Z,20.40
2023-05-17T09:24:14.456Z,20.30
2023-05-17T09:26:45.819Z,20.30
2023-05-17T09:29:15.183Z,20.40
2023-05-17T09:31:42.900Z,20.30
2023-05-17T09:34:10.259Z,20.20
2023-05-17T09:36:38.491Z,20.10
2023-05-17T09:39:07.910Z,20.20
2023-05-17T09:41:41.517Z,20.20
2023-05-17T09:44:09.934Z,20.40
2023-05-17T09:46:38.925Z,20.50
2023-05-17T09:49:07.152Z,20.50
2023-05-17T09:51:45.174Z,20.60
2023-05-17T09:54:12.225Z,20.80
2023-05-17T09:56:39.590Z,20.90
2023-05-17T09:59:16.917Z,20.90
2023-05-17T10:01:45.789Z,20.90
2023-05-17T10:04:13.542Z,20.90
2023-05-17T10:09:14.411Z,21.10
2023-05-17T10:11:45.960Z,21.00
2023-05-17T10:14:23.005Z,21.10
2023-05-17T10:16:51.739Z,21.10
2023-05-17T10:19:21.211Z,21.10
2023-05-17T10:21:50.036Z,21.10
2023-05-17T10:24:17.285Z,21.00
2023-05-17T10:26:44.956Z,20.80
2023-05-17T10:29:11.965Z,20.90
2023-05-17T10:31:43.543Z,20.90
2023-05-17T10:34:12.332Z,21.00
2023-05-17T10:36:40.629Z,21.20
2023-05-17T10:39:10.676Z,21.20
2023-05-17T10:41:42.064Z,21.30
2023-05-17T10:44:13.048Z,21.50
2023-05-17T10:46:40.231Z,21.70
2023-05-17T10:49:07.191Z,21.80
2023-05-17T10:51:37.819Z,21.90
2023-05-17T10:54:12.740Z,22.10
2023-05-17T10:56:41.589Z,22.20
2023-05-17T10:59:35.689Z,22.40
2023-05-17T11:02:10.213Z,22.40
2023-05-17T11:04:38.386Z,22.30
2023-05-17T11:07:18.914Z,22.10
2023-05-17T11:09:49.421Z,22.00
2023-05-17T11:12:17.299Z,21.90
2023-05-17T11:14:52.037Z,21.80
2023-05-17T11:17:35.256Z,21.80
2023-05-17T11:20:10.894Z,21.80
2023-05-17T11:22:49.461Z,21.90
2023-05-17T11:25:17.077Z,22.00
2023-05-17T11:27:45.945Z,22.10
2023-05-17T11:30:32.594Z,22.10
2023-05-17T11:33:00.637Z,22.20
2023-05-17T11:35:30.008Z,22.20
2023-05-17T11:38:15.183Z,22.30
2023-05-17T11:40:42.732Z,22.30
2023-05-17T11:43:16.337Z,22.20
2023-05-17T11:45:55.323Z,22.20
2023-05-17T11:48:23.709Z,22.20
2023-05-17T11:50:52.563Z,22.10
2023-05-17T11:53:19.926Z,22.10
2023-05-17T11:55:51.846Z,22.20
2023-05-17T11:58:20.556Z,22.20
2023-05-17T12:00:53.347Z,22.10
2023-05-17T12:03:30.537Z,22.10
2023-05-17T12:06:11.547Z,22.00
2023-05-17T12:08:40.162Z,22.20
2023-05-17T12:11:07.833Z,22.30
2023-05-17T12:13:35.844Z,22.30
2023-05-17T12:16:07.402Z,22.40
2023-05-17T12:18:46.271Z,22.50
2023-05-17T12:21:15.357Z,22.30
2023-05-17T12:23:48.836Z,22.30
2023-05-17T12:26:19.391Z,22.10
2023-05-17T12:28:52.556Z,22.00
2023-05-17T12:31:24.245Z,21.90
2023-05-17T12:33:51.346Z,22.00
2023-05-17T12:36:18.850Z,22.00
2023-05-17T12:38:48.353Z,22.30
2023-05-17T12:41:16.521Z,22.50
2023-05-17T12:43:45.526Z,22.50
2023-05-17T12:46:18.933Z,22.50
2023-05-17T12:48:46.948Z,22.50
2023-05-17T12:51:15.830Z,22.50
2023-05-17T12:53:44.949Z,22.60
2023-05-17T12:56:27.014Z,22.50
2023-05-17T12:59:10.065Z,22.60
2023-05-17T13:01:45.441Z,22.50
2023-05-17T13:04:13.507Z,22.50
2023-05-17T13:06:51.780Z,22.60
2023-05-17T13:09:20.810Z,22.80
2023-05-17T13:11:51.870Z,22.80
2023-05-17T13:14:43.473Z,22.70
2023-05-17T13:17:16.733Z,22.70
2023-05-17T13:19:43.709Z,22.70
2023-05-17T13:22:11.047Z,22.50
2023-05-17T13:24:39.768Z,22.40
2023-05-17T13:27:08.695Z,22.60
2023-05-17T13:29:40.202Z,22.70
2023-05-17T13:32:09.194Z,23.00
2023-05-17T13:34:36.455Z,23.10
2023-05-17T13:37:03.836Z,23.00
2023-05-17T13:39:30.772Z,23.00
2023-05-17T13:41:57.708Z,22.90
2023-05-17T13:44:24.969Z,22.80
2023-05-17T13:46:51.851Z,22.90
2023-05-17T13:49:18.868Z,23.00
2023-05-17T13:51:46.088Z,23.00
2023-05-17T13:54:12.977Z,23.10
2023-05-17T13:56:39.838Z,23.10
2023-05-17T13:59:06.753Z,22.90
2023-05-17T14:01:33.793Z,22.90
2023-05-17T14:04:01.073Z,22.80
2023-05-17T14:06:28.325Z,22.80
2023-05-17T14:08:55.930Z,22.80
2023-05-17T14:11:22.884Z,22.70
2023-05-17T14:13:49.786Z,22.60
2023-05-17T14:16:16.675Z,22.40
2023-05-17T14:18:43.674Z,22.20
2023-05-17T14:21:10.666Z,22.20
2023-05-17T14:23:37.815Z,21.90
2023-05-17T14:26:07.522Z,21.80
2023-05-17T14:28:38.089Z,21.90
2023-05-17T14:31:07.096Z,21.90
2023-05-17T14:33:34.513Z,22.00
2023-05-17T14:36:01.781Z,22.00
2023-05-17T14:38:28.595Z,21.80
2023-05-17T14:40:55.943Z,21.60
2023-05-17T14:43:23.325Z,21.60
2023-05-17T14:45:50.141Z,21.40
2023-05-17T14:48:16.978Z,21.50
2023-05-17T14:50:43.819Z,21.40
2023-05-17T14:53:10.970Z,21.30
2023-05-17T14:55:38.048Z,21.20
2023-05-17T14:58:04.932Z,21.20
2023-05-17T15:00:31.774Z,21.20
2023-05-17T15:02:59.106Z,21.10
2023-05-17T15:05:26.168Z,21.20
2023-05-17T15:07:53.122Z,21.20
2023-05-17T15:10:20.233Z,21.20
2023-05-17T15:12:47.475Z,21.20
2023-05-17T15:15:14.482Z,21.20
2023-05-17T15:17:41.771Z,21.00
2023-05-17T15:20:09.369Z,21.00
2023-05-17T15:22:37.660Z,21.00
2023-05-17T15:25:06.111Z,21.00
2023-05-17T15:27:32.967Z,21.10
2023-05-17T15:29:59.791Z,21.10
2023-05-17T15:32:26.967Z,21.20
2023-05-17T15:34:53.824Z,21.10
2023-05-17T15:37:20.604Z,21.20
2023-05-17T15:39:47.831Z,21.10
2023-05-17T15:42:14.602Z,21.10
2023-05-17T15:44:41.585Z,21.10
2023-05-17T15:47:08.410Z,21.10
2023-05-17T15:49:36.056Z,21.10
2023-05-17T15:52:03.661Z,21.00
2023-05-17T15:54:33.181Z,21.10
2023-05-17T15:57:00.021Z,21.20
2023-05-17T15:59:27.273Z,21.20
2023-05-17T16:01:54.174Z,21.30
2023-05-17T16:04:21.436Z,21.30
2023-05-17T16:06:48.287Z,21.30
2023-05-17T16:09:15.115Z,21.30
2023-05-17T16:11:42.000Z,21.20
2023-05-17T16:14:10.177Z,21.20
2023-05-17T16:16:37.123Z,21.20
2023-05-17T16:19:04.767Z,21.10
2023-05-17T16:21:32.757Z,21.00
2023-05-17T16:23:59.631Z,21.00
2023-05-17T16:26:26.701Z,21.00
2023-05-17T16:28:53.660Z,21.00
2023-05-17T16:31:20.540Z,21.10
2023-05-17T16:33:47.503Z,20.90
2023-05-17T16:36:14.385Z,21.00
2023-05-17T16:38:41.322Z,20.90
2023-05-17T16:41:08.202Z,20.90
2023-05-17T16:43:35.112Z,20.70
2023-05-17T16:46:02.294Z,20.70
2023-05-17T16:48:29.247Z,20.50
2023-05-17T16:50:56.254Z,20.50
2023-05-17T16:53:23.195Z,20.50
2023-05-17T16:55:49.984Z,20.40
2023-05-17T16:58:16.822Z,20.30
2023-05-17T17:00:43.743Z,20.30
2023-05-17T17:03:10.882Z,20.20
2023-05-17T17:05:37.902Z,20.20
2023-05-17T17:08:04.696Z,20.20
2023-05-17T17:10:31.684Z,20.30
2023-05-17T17:12:58.719Z,20.10
2023-05-17T17:15:25.570Z,20.20
2023-05-17T17:17:52.529Z,20.20
2023-05-17T17:20:19.788Z,20.20
2023-05-17T17:22:46.981Z,20.20
2023-05-17T17:25:13.944Z,20.20
2023-05-17T17:27:41.162Z,20.10
2023-05-17T17:30:08.490Z,20.10
2023-05-17T17:32:35.536Z,19.90
2023-05-17T17:35:02.644Z,19.90
2023-05-17T17:37:29.538Z,20.00
2023-05-17T17:39:56.410Z,19.90
2023-05-17T17:42:23.236Z,19.90
2023-05-17T17:44:50.077Z,19.90
2023-05-17T17:47:17.031Z,19.80
2023-05-17T17:49:44.191Z,19.90
2023-05-17T17:52:11.256Z,19.80
2023-05-17T17:54:38.238Z,19.80
2023-05-17T17:57:05.385Z,19.70
2023-05-17T17:59:32.400Z,19.80
2023-05-17T18:02:02.072Z,19.70
2023-05-17T18:04:28.961Z,19.70
2023-05-17T18:06:56.235Z,19.60
2023-05-17T18:09:23.953Z,19.60
2023-05-17T18:11:50.899Z,19.50
2023-05-17T18:14:17.959Z,19.50
2023-05-17T18:16:45.214Z,19.50
2023-05-17T18:19:12.436Z,19.40
2023-05-17T18:21:39.451Z,19.40
2023-05-17T18:24:06.818Z,19.30
2023-05-17T18:26:33.793Z,19.30
2023-05-17T18:29:01.100Z,19.30
2023-05-17T18:31:31.714Z,19.20
2023-05-17T18:33:58.811Z,19.20
2023-05-17T18:36:25.808Z,19.20
2023-05-17T18:38:53.008Z,19.10
2023-05-17T18:41:19.950Z,19.10
2023-05-17T18:43:46.863Z,19.10
2023-05-17T18:46:13.735Z,19.10
2023-05-17T18:48:40.995Z,19.10
2023-05-17T18:51:08.044Z,19.00
2023-05-17T18:53:36.234Z,19.10
2023-05-17T18:56:03.241Z,19.00
2023-05-17T18:58:31.190Z,19.00
2023-05-17T19:00:58.151Z,19.00
2023-05-17T19:03:25.058Z,19.00
2023-05-17T19:05:51.914Z,18.90
2023-05-17T19:08:18.755Z,19.00
2023-05-17T19:10:45.973Z,19.00
2023-05-17T19:13:13.828Z,18.90
2023-05-17T19:15:41.919Z,19.00
2023-05-17T19:18:09.622Z,18.90
2023-05-17T19:20:38.820Z,18.90
2023-05-17T19:23:07.311Z,18.80
2023-05-17T19:25:34.309Z,18.80
2023-05-17T19:28:01.199Z,18.80
2023-05-17T19:30:30.327Z,18.90
2023-05-17T19:33:00.272Z,18.90
2023-05-17T19:35:28.818Z,18.90
2023-05-17T19:37:58.947Z,18.80
2023-05-17T19:40:25.838Z,18.80
2023-05-17T19:42:54.388Z,18.80
2023-05-17T19:45:22.244Z,18.70
2023-05-17T19:47:50.926Z,18.70
2023-05-17T19:50:18.381Z,18.60
2023-05-17T19:52:45.465Z,18.60
2023-05-17T19:55:17.506Z,18.70
2023-05-17T19:57:45.200Z,18.60
2023-05-17T20:00:12.655Z,18.70
2023-05-17T20:02:39.879Z,18.70
2023-05-17T20:05:08.202Z,18.70
2023-05-17T20:07:35.396Z,18.70
2023-05-17T20:10:02.248Z,18.70
2023-05-17T20:12:30.145Z,18.70
2023-05-17T20:14:57.282Z,18.80
2023-05-17T20:17:25.502Z,18.70
2023-05-17T20:19:52.811Z,18.60
2023-05-17T20:22:21.587Z,18.70
2023-05-17T20:24:48.397Z,18.70
2023-05-17T20:27:15.555Z,18.70
2023-05-17T20:29:42.564Z,18.70
2023-05-17T20:32:09.541Z,18.70
2023-05-17T20:34:36.507Z,18.70
2023-05-17T20:37:03.546Z,18.70
2023-05-17T20:39:31.208Z,18.80
2023-05-17T20:41:58.536Z,18.80
2023-05-17T20:44:25.944Z,18.70
2023-05-17T20:46:54.144Z,18.70
2023-05-17T20:49:22.509Z,18.70
2023-05-17T20:51:49.344Z,18.70
2023-05-17T20:54:16.314Z,18.70
2023-05-17T20:56:43.319Z,18.60
2023-05-17T20:59:11.740Z,18.60
2023-05-17T21:01:38.767Z,18.50
2023-05-17T21:04:05.705Z,18.50
2023-05-17T21:06:34.409Z,18.50
2023-05-17T21:09:02.694Z,18.40
2023-05-17T21:11:31.185Z,18.40
2023-05-17T21:13:59.876Z,18.40
2023-05-17T21:16:26.964Z,18.20
2023-05-17T21:18:56.143Z,18.20
2023-05-17T21:21:22.993Z,18.20
2023-05-17T21:23:49.844Z,18.10
2023-05-17T21:26:16.684Z,18.20
2023-05-17T21:28:43.493Z,18.00
2023-05-17T21:31:10.489Z,18.10
2023-05-17T21:33:37.341Z,18.10
2023-05-17T21:36:04.399Z,18.10
2023-05-17T21:38:31.302Z,18.10
2023-05-17T21:40:58.121Z,18.10
2023-05-17T21:43:24.963Z,18.10
2023-05-17T21:45:52.201Z,18.10
2023-05-17T21:48:18.998Z,18.10
2023-05-17T21:50:45.853Z,18.10
2023-05-17T21:53:13.407Z,18.20
2023-05-17T21:55:56.158Z,18.10
2023-05-17T21:58:26.985Z,18.20
2023-05-17T22:00:53.899Z,18.20
2023-05-17T22:03:21.404Z,18.20
2023-05-17T22:05:48.425Z,18.20
2023-05-17T22:08:15.440Z,18.20
2023-05-17T22:10:42.256Z,18.20
2023-05-17T22:13:12.176Z,18.20
2023-05-17T22:15:39.397Z,18.20
2023-05-17T22:18:06.384Z,18.30
2023-05-17T22:20:33.467Z,18.20
2023-05-17T22:23:00.233Z,18.20
2023-05-17T22:25:26.981Z,18.20
2023-05-17T22:27:53.836Z,18.20
2023-05-17T22:30:20.862Z,18.20
2023-05-17T22:32:47.952Z,18.10
2023-05-17T22:35:14.987Z,18.20
2023-05-17T22:37:42.838Z,18.10
2023-05-17T22:40:11.046Z,18.10
2023-05-17T22:42:37.893Z,17.90
2023-05-17T22:45:05.186Z,18.00
2023-05-17T22:47:32.144Z,18.00
2023-05-17T22:50:00.863Z,18.00
2023-05-17T22:52:27.741Z,18.00
2023-05-17T22:54:54.584Z,17.90
2023-05-17T22:57:21.509Z,17.90
2023-05-17T22:59:48.316Z,17.90
2023-05-17T23:02:15.091Z,17.80
2023-05-17T23:04:45.872Z,17.90
2023-05-17T23:07:12.943Z,17.80
2023-05-17T23:09:40.596Z,17.70
2023-05-17T23:12:08.730Z,17.80
2023-05-17T23:14:36.657Z,17.80
2023-05-17T23:17:04.389Z,17.70
2023-05-17T23:19:32.453Z,17.70
2023-05-17T23:22:06.194Z,17.80
2023-05-17T23:24:38.595Z,17.60
2023-05-17T23:27:09.867Z,17.60
2023-05-17T23:29:36.944Z,17.60
2023-05-17T23:32:03.925Z,17.60
2023-05-17T23:34:31.213Z,17.70
2023-05-17T23:36:58.007Z,17.70
2023-05-17T23:39:26.327Z,17.70
2023-05-17T23:41:53.624Z,17.70
2023-05-17T23:44:20.452Z,17.70
2023-05-17T23:46:47.384Z,17.70
2023-05-17T23:49:14.740Z,17.80
2023-05-17T23:51:41.529Z,17.80
2023-05-17T23:54:10.949Z,17.80
2023-05-17T23:56:37.754Z,17.80
2023-05-17T23:59:04.621Z,17.80
